Time;durP1;ratioP1;P1;durP2;ratioP2;P2;SDS_P1;SDS_P2;PMS_P1;PMS_P2;Temp;Humidity;BMP_temperature;BMP_pressure;BME280_temperature;BME280_humidity;BME280_pressure;Samples;Min_cycle;Max_cycle;Signal;HPM_P1;HPM_P2
2023/02/17 00:00:14;;;;;;;12.07;9.25;;;;;;;;;;6328048;28;20056;-70
2023/02/17 00:03:17;;;;;;;12.68;9.48;;;;;;;;;;6329006;28;20335;-70
2023/02/17 00:06:21;;;;;;;14.77;9.25;;;;;;;;;;6327972;28;20102;-70
2023/02/17 00:09:23;;;;;;;17.30;9.50;;;;;;;;;;6324037;28;20051;-71
2023/02/17 00:12:25;;;;;;;19.52;9.13;;;;;;;;;;6329858;28;20221;-71
2023/02/17 00:15:27;;;;;;;13.52;9.20;;;;;;;;;;6333996;28;20044;-71
2023/02/17 00:18:30;;;;;;;12.10;9.00;;;;;;;;;;6326244;28;20051;-71
2023/02/17 00:21:32;;;;;;;11.95;8.85;;;;;;;;;;6325638;28;20048;-71
2023/02/17 00:24:37;;;;;;;16.40;9.60;;;;;;;;;;6324573;28;20271;-71
2023/02/17 00:27:38;;;;;;;12.00;8.40;;;;;;;;;;6326098;28;20048;-70
2023/02/17 00:30:40;;;;;;;15.48;8.90;;;;;;;;;;6324223;28;20043;-70
2023/02/17 00:33:43;;;;;;;13.18;8.82;;;;;;;;;;6324145;28;20966;-71
2023/02/17 00:36:45;;;;;;;14.63;8.73;;;;;;;;;;6327616;28;20117;-71
2023/02/17 00:39:47;;;;;;;52.83;26.98;;;;;;;;;;6327553;28;20294;-71
2023/02/17 00:42:49;;;;;;;146.25;75.20;;;;;;;;;;6327559;28;20052;-70
2023/02/17 00:45:50;;;;;;;60.92;32.45;;;;;;;;;;6325831;28;20055;-71
2023/02/17 00:48:53;;;;;;;56.20;28.40;;;;;;;;;;6328595;28;20084;-72
2023/02/17 00:51:55;;;;;;;22.17;13.50;;;;;;;;;;6327597;28;20062;-70
2023/02/17 00:54:57;;;;;;;21.90;14.93;;;;;;;;;;6329176;28;20059;-71
2023/02/17 00:57:58;;;;;;;23.90;15.45;;;;;;;;;;6322399;28;20052;-71
2023/02/17 01:01:00;;;;;;;14.80;9.90;;;;;;;;;;6326446;27;20129;-71
2023/02/17 01:04:04;;;;;;;12.98;8.85;;;;;;;;;;6326110;28;21430;-71
2023/02/17 01:07:05;;;;;;;10.93;8.68;;;;;;;;;;6326628;27;20106;-71
2023/02/17 01:10:08;;;;;;;12.45;8.93;;;;;;;;;;6324844;28;20283;-71
2023/02/17 01:13:11;;;;;;;11.80;9.02;;;;;;;;;;6326877;28;20044;-71
2023/02/17 01:16:17;;;;;;;12.57;9.00;;;;;;;;;;6325772;28;20093;-71
2023/02/17 01:19:20;;;;;;;11.88;9.07;;;;;;;;;;6322969;28;20340;-71
2023/02/17 01:22:22;;;;;;;13.98;9.88;;;;;;;;;;6329234;28;20047;-71
2023/02/17 01:25:24;;;;;;;11.40;7.80;;;;;;;;;;6329607;27;20124;-71
2023/02/17 01:28:27;;;;;;;12.77;9.00;;;;;;;;;;6345123;27;20056;-71
2023/02/17 01:31:28;;;;;;;13.80;8.95;;;;;;;;;;6327408;28;20109;-71
2023/02/17 01:34:36;;;;;;;13.20;8.73;;;;;;;;;;6320677;27;20055;-71
2023/02/17 01:37:38;;;;;;;12.85;8.40;;;;;;;;;;6324930;28;20052;-72
2023/02/17 01:40:46;;;;;;;12.45;8.85;;;;;;;;;;6326872;28;20056;-71
2023/02/17 01:44:09;;;;;;;14.23;7.90;;;;;;;;;;6325100;28;20051;-71
2023/02/17 01:47:12;;;;;;;12.43;8.75;;;;;;;;;;6326959;27;20105;-71
2023/02/17 01:50:17;;;;;;;11.43;8.73;;;;;;;;;;6324384;28;20064;-71
2023/02/17 01:53:21;;;;;;;10.80;8.32;;;;;;;;;;6322605;27;20252;-71
2023/02/17 01:56:23;;;;;;;13.02;7.97;;;;;;;;;;6322503;28;20575;-71
2023/02/17 01:59:25;;;;;;;12.63;8.15;;;;;;;;;;6324644;27;20060;-71
2023/02/17 02:02:28;;;;;;;12.30;8.13;;;;;;;;;;6324244;28;20732;-71
2023/02/17 02:05:31;;;;;;;10.50;8.03;;;;;;;;;;6325664;28;20378;-71
2023/02/17 02:08:45;;;;;;;11.93;8.77;;;;;;;;;;6322128;27;20101;-71
2023/02/17 02:11:49;;;;;;;11.68;8.10;;;;;;;;;;6321693;28;20556;-71
2023/02/17 02:14:51;;;;;;;12.13;8.45;;;;;;;;;;6329314;27;20128;-71
2023/02/17 02:18:05;;;;;;;12.00;8.70;;;;;;;;;;6325163;28;20320;-72
2023/02/17 02:21:56;;;;;;;14.02;9.50;;;;;;;;;;6322685;27;20511;-72
2023/02/17 02:25:11;;;;;;;10.63;7.93;;;;;;;;;;6325098;28;20209;-71
2023/02/17 02:28:21;;;;;;;11.98;8.00;;;;;;;;;;6329202;28;20052;-71
2023/02/17 02:31:30;;;;;;;13.35;8.43;;;;;;;;;;6321430;28;20052;-72
2023/02/17 02:34:37;;;;;;;10.60;8.05;;;;;;;;;;6321503;27;20166;-71
2023/02/17 02:37:42;;;;;;;13.32;8.40;;;;;;;;;;6323540;28;20055;-71
2023/02/17 02:40:46;;;;;;;10.85;8.00;;;;;;;;;;6322782;28;20051;-71
2023/02/17 02:43:48;;;;;;;11.52;8.50;;;;;;;;;;6321899;28;20078;-71
2023/02/17 02:46:57;;;;;;;13.10;8.23;;;;;;;;;;6322428;28;20049;-71
2023/02/17 02:50:00;;;;;;;12.73;8.43;;;;;;;;;;6326480;28;20340;-71
2023/02/17 02:53:12;;;;;;;12.75;7.82;;;;;;;;;;6323754;28;20043;-71
2023/02/17 02:56:22;;;;;;;11.00;8.18;;;;;;;;;;6323530;28;20047;-71
2023/02/17 02:59:32;;;;;;;10.93;7.65;;;;;;;;;;6324318;27;20239;-71
2023/02/17 03:02:39;;;;;;;12.88;8.32;;;;;;;;;;6322797;28;20051;-71
2023/02/17 03:05:48;;;;;;;12.73;8.27;;;;;;;;;;6321264;27;20356;-71
2023/02/17 03:08:53;;;;;;;12.80;8.20;;;;;;;;;;6325277;28;20277;-71
2023/02/17 03:11:56;;;;;;;12.35;8.38;;;;;;;;;;6323610;27;20052;-71
2023/02/17 03:15:00;;;;;;;12.32;8.80;;;;;;;;;;6323587;28;20094;-71
2023/02/17 03:18:03;;;;;;;11.93;8.13;;;;;;;;;;6325481;28;20040;-71
2023/02/17 03:21:12;;;;;;;12.07;8.38;;;;;;;;;;6326896;27;20247;-71
2023/02/17 03:24:14;;;;;;;15.15;8.60;;;;;;;;;;6319347;28;20048;-71
2023/02/17 03:27:15;;;;;;;11.25;8.40;;;;;;;;;;6321592;27;20089;-71
2023/02/17 03:30:17;;;;;;;13.43;8.90;;;;;;;;;;6321985;28;20123;-71
2023/02/17 03:33:19;;;;;;;11.93;8.60;;;;;;;;;;6324973;27;20059;-71
2023/02/17 03:36:22;;;;;;;13.82;9.10;;;;;;;;;;6325212;28;20047;-72
2023/02/17 03:39:23;;;;;;;15.30;8.93;;;;;;;;;;6322252;28;20052;-71
2023/02/17 03:42:25;;;;;;;12.60;9.02;;;;;;;;;;6323784;28;20340;-71
2023/02/17 03:45:27;;;;;;;13.70;8.80;;;;;;;;;;6320890;28;20067;-71
2023/02/17 03:48:28;;;;;;;13.88;9.68;;;;;;;;;;6327526;27;20056;-72
2023/02/17 03:51:31;;;;;;;15.05;9.95;;;;;;;;;;6325517;28;20456;-71
2023/02/17 03:54:33;;;;;;;12.93;8.95;;;;;;;;;;6329662;28;20044;-71
2023/02/17 03:57:35;;;;;;;17.15;10.25;;;;;;;;;;6330635;28;20203;-71
2023/02/17 04:00:36;;;;;;;18.02;9.48;;;;;;;;;;6325608;27;20325;-70
2023/02/17 04:03:38;;;;;;;13.43;9.63;;;;;;;;;;6327157;27;20182;-70
2023/02/17 04:06:42;;;;;;;15.63;9.90;;;;;;;;;;6329059;28;20335;-70
2023/02/17 04:09:43;;;;;;;14.18;9.45;;;;;;;;;;6327625;27;20241;-71
2023/02/17 04:12:45;;;;;;;13.57;9.82;;;;;;;;;;6326231;27;20125;-71
2023/02/17 04:15:47;;;;;;;16.60;10.20;;;;;;;;;;6328036;28;20052;-71
2023/02/17 04:18:49;;;;;;;16.83;11.52;;;;;;;;;;6323720;27;20061;-69
2023/02/17 04:21:52;;;;;;;17.02;11.02;;;;;;;;;;6327433;27;20058;-70
2023/02/17 04:24:53;;;;;;;17.42;11.20;;;;;;;;;;6328316;28;20043;-70
2023/02/17 04:27:55;;;;;;;16.67;11.38;;;;;;;;;;6329291;28;20052;-70
2023/02/17 04:30:58;;;;;;;17.30;11.63;;;;;;;;;;6327644;27;20334;-70
2023/02/17 04:34:00;;;;;;;14.85;10.48;;;;;;;;;;6327370;27;20047;-69
2023/02/17 04:37:03;;;;;;;17.63;11.23;;;;;;;;;;6326328;27;20052;-70
2023/02/17 04:40:09;;;;;;;19.17;11.75;;;;;;;;;;6324124;28;20044;-70
2023/02/17 04:43:10;;;;;;;18.35;11.52;;;;;;;;;;6325334;27;20043;-70
2023/02/17 04:46:12;;;;;;;17.65;11.93;;;;;;;;;;6327280;28;20050;-70
2023/02/17 04:49:14;;;;;;;16.10;11.88;;;;;;;;;;6328172;28;20055;-70
2023/02/17 04:52:17;;;;;;;19.42;11.27;;;;;;;;;;6324885;28;20126;-70
2023/02/17 04:55:18;;;;;;;17.50;11.10;;;;;;;;;;6326859;28;20122;-70
2023/02/17 04:58:21;;;;;;;17.77;11.70;;;;;;;;;;6325248;27;20056;-70
2023/02/17 05:01:22;;;;;;;19.88;12.25;;;;;;;;;;6327188;27;20052;-70
2023/02/17 05:04:24;;;;;;;15.95;11.93;;;;;;;;;;6326319;28;20052;-70
2023/02/17 05:07:27;;;;;;;19.58;12.77;;;;;;;;;;6327480;28;20125;-70
2023/02/17 05:10:29;;;;;;;17.83;11.80;;;;;;;;;;6329608;27;20090;-70
2023/02/17 05:13:32;;;;;;;17.17;12.45;;;;;;;;;;6325773;28;20044;-70
2023/02/17 05:16:33;;;;;;;19.15;12.93;;;;;;;;;;6323862;28;20090;-70
2023/02/17 05:19:35;;;;;;;19.40;13.05;;;;;;;;;;6326268;28;20063;-70
2023/02/17 05:22:38;;;;;;;19.33;12.75;;;;;;;;;;6326235;27;20051;-70
2023/02/17 05:25:40;;;;;;;17.90;12.88;;;;;;;;;;6326801;28;20078;-70
2023/02/17 05:28:42;;;;;;;19.48;13.93;;;;;;;;;;6325371;27;20060;-70
2023/02/17 05:31:43;;;;;;;23.23;14.18;;;;;;;;;;6326583;28;20105;-70
2023/02/17 05:34:45;;;;;;;16.80;12.20;;;;;;;;;;6325370;28;20099;-70
2023/02/17 05:37:48;;;;;;;19.15;12.93;;;;;;;;;;6325991;28;20052;-70
2023/02/17 05:40:50;;;;;;;20.50;13.05;;;;;;;;;;6325022;28;20063;-70
2023/02/17 05:43:52;;;;;;;19.73;13.35;;;;;;;;;;6327192;28;20052;-70
2023/02/17 05:46:53;;;;;;;18.92;13.38;;;;;;;;;;6326065;28;20048;-70
2023/02/17 05:49:55;;;;;;;19.25;14.07;;;;;;;;;;6324191;28;20047;-70
2023/02/17 05:52:58;;;;;;;20.45;13.52;;;;;;;;;;6325264;28;20087;-70
2023/02/17 05:55:59;;;;;;;21.65;14.57;;;;;;;;;;6325082;27;20116;-70
2023/02/17 05:59:01;;;;;;;22.10;14.60;;;;;;;;;;6324202;27;20048;-70
2023/02/17 06:02:03;;;;;;;24.08;15.20;;;;;;;;;;6327824;28;20044;-70
2023/02/17 06:05:05;;;;;;;21.38;14.52;;;;;;;;;;6326532;28;20320;-70
2023/02/17 06:08:08;;;;;;;26.00;15.65;;;;;;;;;;6322458;28;20075;-72
2023/02/17 06:11:10;;;;;;;25.48;15.77;;;;;;;;;;6321048;28;20105;-72
2023/02/17 06:14:11;;;;;;;22.38;15.50;;;;;;;;;;6323232;28;20347;-72
2023/02/17 06:17:13;;;;;;;24.45;16.45;;;;;;;;;;6325631;27;20047;-72
2023/02/17 06:20:15;;;;;;;25.33;16.60;;;;;;;;;;6326568;28;20050;-72
2023/02/17 06:23:18;;;;;;;22.42;14.70;;;;;;;;;;6320512;28;20105;-71
2023/02/17 06:26:20;;;;;;;25.38;16.98;;;;;;;;;;6324015;28;20056;-70
2023/02/17 06:29:22;;;;;;;27.27;16.92;;;;;;;;;;6324711;27;20044;-71
2023/02/17 06:32:23;;;;;;;24.40;16.38;;;;;;;;;;6327374;28;20044;-69
2023/02/17 06:35:25;;;;;;;24.27;16.35;;;;;;;;;;6320394;28;20052;-68
2023/02/17 06:38:28;;;;;;;27.52;16.80;;;;;;;;;;6324349;28;20405;-70
2023/02/17 06:41:30;;;;;;;25.35;16.50;;;;;;;;;;6324783;28;20052;-70
2023/02/17 06:44:32;;;;;;;26.73;18.02;;;;;;;;;;6322595;28;20055;-71
2023/02/17 06:47:34;;;;;;;27.63;18.02;;;;;;;;;;6324810;28;20036;-70
2023/02/17 06:50:36;;;;;;;25.67;17.52;;;;;;;;;;6325575;28;20044;-71
2023/02/17 06:53:39;;;;;;;27.67;18.15;;;;;;;;;;6322542;28;20048;-73
2023/02/17 06:56:40;;;;;;;26.55;17.35;;;;;;;;;;6325024;28;20379;-68
2023/02/17 06:59:42;;;;;;;27.80;17.67;;;;;;;;;;6324184;28;20343;-83
2023/02/17 07:02:44;;;;;;;27.95;17.67;;;;;;;;;;6327108;28;20059;-84
2023/02/17 07:05:45;;;;;;;26.05;17.70;;;;;;;;;;6323228;28;20056;-84
2023/02/17 07:08:49;;;;;;;29.05;18.35;;;;;;;;;;6320112;28;20045;-83
2023/02/17 07:11:51;;;;;;;30.47;19.23;;;;;;;;;;6318839;28;20240;-80
2023/02/17 07:14:52;;;;;;;33.08;19.52;;;;;;;;;;6323049;28;20059;-84
2023/02/17 07:17:54;;;;;;;29.08;19.08;;;;;;;;;;6323805;28;20116;-84
2023/02/17 07:20:56;;;;;;;25.40;18.38;;;;;;;;;;6327068;28;20052;-84
2023/02/17 07:23:59;;;;;;;26.92;18.20;;;;;;;;;;6323228;28;20103;-79
2023/02/17 07:27:01;;;;;;;28.42;19.08;;;;;;;;;;6323517;28;20056;-81
2023/02/17 07:30:03;;;;;;;29.15;19.15;;;;;;;;;;6323377;28;20126;-70
2023/02/17 07:33:05;;;;;;;31.52;18.83;;;;;;;;;;6322212;28;20348;-69
2023/02/17 07:36:07;;;;;;;30.27;18.92;;;;;;;;;;6320887;28;20174;-70
2023/02/17 07:39:10;;;;;;;29.95;17.88;;;;;;;;;;6294123;28;20192;-70
2023/02/17 07:42:12;;;;;;;27.05;17.48;;;;;;;;;;6321124;28;20239;-70
2023/02/17 07:45:14;;;;;;;25.27;17.88;;;;;;;;;;6322974;28;20322;-72
2023/02/17 07:48:15;;;;;;;27.95;18.85;;;;;;;;;;6324149;28;20093;-70
2023/02/17 07:51:18;;;;;;;31.30;19.33;;;;;;;;;;6321131;28;20374;-71
2023/02/17 07:54:21;;;;;;;27.92;18.10;;;;;;;;;;6324499;28;20389;-71
2023/02/17 07:57:23;;;;;;;24.60;17.85;;;;;;;;;;6322283;27;20052;-70
2023/02/17 08:00:25;;;;;;;23.75;18.35;;;;;;;;;;6323576;28;20060;-70
2023/02/17 08:03:27;;;;;;;25.95;18.88;;;;;;;;;;6321953;28;20059;-70
2023/02/17 08:06:29;;;;;;;24.50;17.52;;;;;;;;;;6324307;27;20110;-70
2023/02/17 08:16:06;;;;;;;27.88;18.63;;;;;;;;;;6310186;28;20270;-71
2023/02/17 08:19:08;;;;;;;26.52;18.52;;;;;;;;;;6318231;28;20274;-72
2023/02/17 08:22:09;;;;;;;24.20;17.88;;;;;;;;;;6321089;28;20059;-71
2023/02/17 08:25:13;;;;;;;31.55;19.15;;;;;;;;;;6319510;28;20093;-71
2023/02/17 08:28:14;;;;;;;27.20;18.65;;;;;;;;;;6321799;27;20355;-71
2023/02/17 08:31:16;;;;;;;28.23;19.75;;;;;;;;;;6322947;28;20279;-71
2023/02/17 08:34:18;;;;;;;34.53;18.83;;;;;;;;;;6323703;27;20093;-70
2023/02/17 08:37:20;;;;;;;27.73;19.60;;;;;;;;;;6323546;27;20052;-70
2023/02/17 08:40:23;;;;;;;28.70;19.60;;;;;;;;;;6326237;28;20064;-71
2023/02/17 08:43:25;;;;;;;27.37;19.90;;;;;;;;;;6324347;27;20066;-71
2023/02/17 08:46:27;;;;;;;31.13;20.00;;;;;;;;;;6326194;28;20434;-73
2023/02/17 08:49:31;;;;;;;27.73;20.85;;;;;;;;;;6324589;28;20048;-71
2023/02/17 08:52:34;;;;;;;32.90;20.55;;;;;;;;;;6322939;27;20332;-70
2023/02/17 08:55:37;;;;;;;30.85;20.38;;;;;;;;;;6323601;27;20056;-72
2023/02/17 08:58:39;;;;;;;31.48;20.70;;;;;;;;;;6324982;28;20111;-71
2023/02/17 09:01:41;;;;;;;28.90;19.75;;;;;;;;;;6325880;28;20270;-71
2023/02/17 09:04:43;;;;;;;30.88;19.88;;;;;;;;;;6329585;28;20052;-71
2023/02/17 09:07:44;;;;;;;25.10;19.58;;;;;;;;;;6331201;28;20097;-71
2023/02/17 09:10:47;;;;;;;28.27;20.52;;;;;;;;;;6327937;27;20052;-72
2023/02/17 09:13:49;;;;;;;27.27;20.33;;;;;;;;;;6325783;28;20055;-71
2023/02/17 09:16:51;;;;;;;29.55;20.58;;;;;;;;;;6325564;28;20341;-71
2023/02/17 09:19:53;;;;;;;29.65;19.85;;;;;;;;;;6327033;28;20240;-71
2023/02/17 09:22:55;;;;;;;27.38;19.90;;;;;;;;;;6324122;28;20071;-71
2023/02/17 09:26:04;;;;;;;29.23;19.65;;;;;;;;;;6326158;27;20330;-72
2023/02/17 09:29:06;;;;;;;27.55;21.15;;;;;;;;;;6324597;28;20052;-72
2023/02/17 09:32:08;;;;;;;26.20;21.00;;;;;;;;;;6323567;28;20282;-72
2023/02/17 09:35:11;;;;;;;31.58;20.17;;;;;;;;;;6326187;28;20048;-71
2023/02/17 09:38:13;;;;;;;28.92;20.40;;;;;;;;;;6299509;27;20062;-72
2023/02/17 09:41:18;;;;;;;28.38;20.13;;;;;;;;;;6327867;28;20267;-72
2023/02/17 09:44:22;;;;;;;29.63;20.88;;;;;;;;;;6322445;28;20507;-72
2023/02/17 09:47:27;;;;;;;27.70;18.83;;;;;;;;;;6323455;27;20043;-72
2023/02/17 09:50:32;;;;;;;30.10;19.30;;;;;;;;;;6319459;28;20052;-72
2023/02/17 09:53:37;;;;;;;29.25;19.63;;;;;;;;;;6324233;27;20114;-72
2023/02/17 09:56:44;;;;;;;22.60;17.98;;;;;;;;;;6323973;27;20097;-71
2023/02/17 09:59:48;;;;;;;23.38;17.35;;;;;;;;;;6326881;28;21929;-70
2023/02/17 10:02:55;;;;;;;23.02;17.50;;;;;;;;;;6324151;28;20051;-77
2023/02/17 10:06:07;;;;;;;21.58;16.85;;;;;;;;;;6323019;28;20063;-72
2023/02/17 10:09:12;;;;;;;21.95;15.70;;;;;;;;;;6326497;28;20048;-70
2023/02/17 10:12:18;;;;;;;21.95;15.90;;;;;;;;;;6323829;28;20347;-71
2023/02/17 10:15:23;;;;;;;17.50;13.65;;;;;;;;;;6322402;28;20209;-71
2023/02/17 10:18:30;;;;;;;16.02;11.77;;;;;;;;;;6323675;28;20052;-71
2023/02/17 10:21:36;;;;;;;21.67;10.85;;;;;;;;;;6325114;28;20328;-72
2023/02/17 10:24:37;;;;;;;11.68;8.88;;;;;;;;;;6324689;28;20056;-71
2023/02/17 10:27:42;;;;;;;17.67;11.52;;;;;;;;;;6323353;28;20056;-71
2023/02/17 10:30:51;;;;;;;18.50;11.77;;;;;;;;;;6329104;28;20352;-71
2023/02/17 10:33:56;;;;;;;15.13;10.40;;;;;;;;;;6329004;28;20048;-71
2023/02/17 10:37:00;;;;;;;13.95;9.63;;;;;;;;;;6324533;28;20332;-70
2023/02/17 10:40:07;;;;;;;13.00;10.02;;;;;;;;;;6327955;28;20097;-68
2023/02/17 10:43:12;;;;;;;16.42;10.60;;;;;;;;;;6327348;28;20048;-70
2023/02/17 10:46:15;;;;;;;13.70;10.82;;;;;;;;;;6326152;28;20052;-70
2023/02/17 10:49:25;;;;;;;16.87;10.87;;;;;;;;;;6327933;28;20048;-70
2023/02/17 10:52:33;;;;;;;14.27;11.13;;;;;;;;;;6324592;28;20066;-70
2023/02/17 10:55:37;;;;;;;17.45;10.60;;;;;;;;;;6327728;27;20066;-70
2023/02/17 10:58:41;;;;;;;;;;;;;;;;;;6325986;28;20051;-70
2023/02/17 11:01:43;;;;;;;12.90;9.93;;;;;;;;;;6320970;27;20079;-68
2023/02/17 11:04:47;;;;;;;12.88;10.05;;;;;;;;;;6322437;28;20174;-70
2023/02/17 11:07:55;;;;;;;17.02;9.32;;;;;;;;;;6323214;28;20056;-70
2023/02/17 11:11:01;;;;;;;13.35;10.00;;;;;;;;;;6323639;27;20056;-70
2023/02/17 11:14:12;;;;;;;12.10;9.38;;;;;;;;;;6324203;28;20263;-70
2023/02/17 11:17:16;;;;;;;12.85;9.68;;;;;;;;;;6322628;28;20201;-73
2023/02/17 11:20:34;;;;;;;52.70;30.17;;;;;;;;;;6322333;28;20559;-72
2023/02/17 11:23:47;;;;;;;62.15;37.20;;;;;;;;;;6325166;27;20040;-73
2023/02/17 11:27:00;;;;;;;12.73;10.27;;;;;;;;;;6324443;28;20339;-70
2023/02/17 11:30:09;;;;;;;11.40;9.38;;;;;;;;;;6322741;28;20426;-69
2023/02/17 11:33:12;;;;;;;12.85;9.27;;;;;;;;;;6320454;28;20085;-70
2023/02/17 11:36:23;;;;;;;12.75;8.50;;;;;;;;;;6321922;28;20356;-69
2023/02/17 11:39:24;;;;;;;11.48;8.88;;;;;;;;;;6321224;28;20040;-69
2023/02/17 11:42:28;;;;;;;11.73;8.73;;;;;;;;;;6325667;28;20055;-69
2023/02/17 11:45:40;;;;;;;14.73;9.88;;;;;;;;;;6319094;28;20055;-70
2023/02/17 11:49:13;;;;;;;13.27;9.35;;;;;;;;;;6323470;27;20090;-70
2023/02/17 11:52:25;;;;;;;17.23;11.15;;;;;;;;;;6320272;28;20051;-70
2023/02/17 11:55:35;;;;;;;18.58;11.73;;;;;;;;;;6323350;28;20032;-70
2023/02/17 11:58:49;;;;;;;14.43;10.43;;;;;;;;;;6324489;28;20121;-70
2023/02/17 12:02:14;;;;;;;16.38;10.57;;;;;;;;;;6320637;28;20046;-70
2023/02/17 12:05:22;;;;;;;16.30;11.93;;;;;;;;;;6324104;28;20048;-69
2023/02/17 12:08:30;;;;;;;13.02;10.45;;;;;;;;;;6325492;27;20056;-70
2023/02/17 12:11:39;;;;;;;13.20;9.30;;;;;;;;;;6326889;27;20063;-70
2023/02/17 12:14:53;;;;;;;12.30;9.63;;;;;;;;;;6325171;28;20051;-71
2023/02/17 12:18:03;;;;;;;14.80;10.90;;;;;;;;;;6324030;27;20385;-70
2023/02/17 12:21:09;;;;;;;13.38;10.45;;;;;;;;;;6324504;27;20093;-71
2023/02/17 12:24:27;;;;;;;15.30;9.80;;;;;;;;;;6326506;28;20115;-71
2023/02/17 12:27:38;;;;;;;18.35;11.25;;;;;;;;;;6324454;27;20044;-72
2023/02/17 12:30:53;;;;;;;13.23;10.88;;;;;;;;;;6327921;28;20281;-72
2023/02/17 12:34:02;;;;;;;21.48;12.63;;;;;;;;;;6323577;28;20052;-71
2023/02/17 12:37:06;;;;;;;20.55;12.68;;;;;;;;;;6325894;27;21946;-71
2023/02/17 12:40:16;;;;;;;13.60;11.05;;;;;;;;;;6327760;28;20062;-71
2023/02/17 12:43:27;;;;;;;18.60;11.85;;;;;;;;;;6325408;28;20105;-72
2023/02/17 12:46:30;;;;;;;14.00;10.98;;;;;;;;;;6326613;28;20048;-70
2023/02/17 12:49:36;;;;;;;17.50;11.93;;;;;;;;;;6330778;28;20260;-75
2023/02/17 12:52:39;;;;;;;15.23;10.85;;;;;;;;;;6328930;28;20225;-80
2023/02/17 12:55:47;;;;;;;17.02;11.55;;;;;;;;;;6327594;27;20048;-73
2023/02/17 12:58:49;;;;;;;15.60;11.85;;;;;;;;;;6326857;28;20136;-73
2023/02/17 13:01:55;;;;;;;14.68;11.70;;;;;;;;;;6332558;28;20055;-74
2023/02/17 13:05:01;;;;;;;15.18;11.82;;;;;;;;;;6332904;27;20266;-74
2023/02/17 13:08:06;;;;;;;16.48;11.23;;;;;;;;;;6332539;28;20052;-73
2023/02/17 13:11:12;;;;;;;16.38;11.80;;;;;;;;;;6330799;28;20052;-71
2023/02/17 13:14:25;;;;;;;14.27;11.00;;;;;;;;;;6332466;28;20105;-74
2023/02/17 13:17:29;;;;;;;18.02;11.52;;;;;;;;;;6330740;27;20057;-75
2023/02/17 13:20:54;;;;;;;17.90;11.27;;;;;;;;;;6323571;28;20353;-75
2023/02/17 13:24:00;;;;;;;14.15;11.20;;;;;;;;;;6316424;28;20048;-76
2023/02/17 13:27:12;;;;;;;15.63;12.13;;;;;;;;;;6330303;28;20097;-77
2023/02/17 13:30:29;;;;;;;14.63;11.80;;;;;;;;;;6328049;28;20048;-76
2023/02/17 13:33:31;;;;;;;17.42;11.60;;;;;;;;;;6327055;28;20093;-77
2023/02/17 13:36:38;;;;;;;14.68;11.23;;;;;;;;;;6331703;27;20150;-76
2023/02/17 13:39:39;;;;;;;14.48;11.13;;;;;;;;;;6328688;28;20048;-76
2023/02/17 13:42:44;;;;;;;14.15;10.77;;;;;;;;;;6327696;27;20048;-76
2023/02/17 13:45:49;;;;;;;15.93;11.85;;;;;;;;;;6326882;28;20056;-77
2023/02/17 13:48:59;;;;;;;15.52;12.18;;;;;;;;;;6326586;28;20056;-77
2023/02/17 13:52:11;;;;;;;16.90;12.07;;;;;;;;;;6324787;27;20067;-76
2023/02/17 13:55:19;;;;;;;16.85;11.90;;;;;;;;;;6324724;27;20062;-76
2023/02/17 13:58:22;;;;;;;18.95;12.55;;;;;;;;;;6327193;28;20052;-77
2023/02/17 14:01:27;;;;;;;24.05;13.32;;;;;;;;;;6326370;27;20076;-76
2023/02/17 14:04:31;;;;;;;16.48;12.55;;;;;;;;;;6326246;28;20047;-77
2023/02/17 14:07:36;;;;;;;15.93;12.20;;;;;;;;;;6324003;28;20225;-78
2023/02/17 14:10:38;;;;;;;16.77;11.52;;;;;;;;;;6324608;28;20055;-75
2023/02/17 14:13:43;;;;;;;15.90;11.18;;;;;;;;;;6320890;27;20046;-77
2023/02/17 14:16:45;;;;;;;15.38;11.55;;;;;;;;;;6324938;28;20380;-77
2023/02/17 14:19:48;;;;;;;17.30;11.93;;;;;;;;;;6328656;28;20127;-77
2023/02/17 14:22:59;;;;;;;16.10;10.90;;;;;;;;;;6325298;28;20056;-75
2023/02/17 14:26:09;;;;;;;15.75;11.23;;;;;;;;;;6324008;27;20056;-77
2023/02/17 14:29:13;;;;;;;15.82;11.68;;;;;;;;;;6326627;27;20324;-78
2023/02/17 14:32:28;;;;;;;15.73;9.88;;;;;;;;;;6326404;27;20442;-72
2023/02/17 14:35:31;;;;;;;13.57;9.77;;;;;;;;;;6327598;28;20048;-75
2023/02/17 14:38:36;;;;;;;16.05;10.57;;;;;;;;;;6327395;28;20055;-78
2023/02/17 14:41:37;;;;;;;17.73;11.98;;;;;;;;;;6321417;28;20055;-72
2023/02/17 14:44:39;;;;;;;13.70;11.05;;;;;;;;;;6326443;28;20052;-77
2023/02/17 14:47:41;;;;;;;16.55;11.10;;;;;;;;;;6322261;28;20068;-77
2023/02/17 14:50:43;;;;;;;15.75;12.10;;;;;;;;;;6327538;28;20048;-75
2023/02/17 14:53:47;;;;;;;18.98;12.13;;;;;;;;;;6323752;28;20247;-77
2023/02/17 14:56:53;;;;;;;16.63;11.90;;;;;;;;;;6327012;28;20105;-77
2023/02/17 14:59:56;;;;;;;17.52;12.60;;;;;;;;;;6325778;28;20112;-76
2023/02/17 15:02:58;;;;;;;15.20;11.45;;;;;;;;;;6322500;28;20185;-74
2023/02/17 15:06:00;;;;;;;14.73;11.70;;;;;;;;;;6323837;28;20120;-78
2023/02/17 15:09:03;;;;;;;17.98;12.38;;;;;;;;;;6325204;27;20075;-76
2023/02/17 15:12:13;;;;;;;16.83;12.52;;;;;;;;;;6325249;28;20055;-73
2023/02/17 15:15:15;;;;;;;21.05;12.57;;;;;;;;;;6322674;28;20103;-76
2023/02/17 15:18:18;;;;;;;28.90;12.77;;;;;;;;;;6322444;28;20089;-75
2023/02/17 15:21:25;;;;;;;20.80;13.27;;;;;;;;;;6325069;28;20054;-77
2023/02/17 15:24:29;;;;;;;17.42;11.93;;;;;;;;;;6324635;27;20055;-77
2023/02/17 15:27:30;;;;;;;;;;;;;;;;;;6323192;28;20219;-76
2023/02/17 15:30:32;;;;;;;18.50;12.85;;;;;;;;;;6322495;28;20003;-75
2023/02/17 15:33:34;;;;;;;20.95;12.93;;;;;;;;;;6323100;28;20044;-76
2023/02/17 15:36:35;;;;;;;21.52;13.60;;;;;;;;;;6323154;28;20063;-71
2023/02/17 15:39:38;;;;;;;19.35;12.80;;;;;;;;;;6323184;27;20428;-77
2023/02/17 15:42:40;;;;;;;20.75;12.18;;;;;;;;;;6325307;28;20101;-73
2023/02/17 15:45:42;;;;;;;16.00;12.43;;;;;;;;;;6329130;28;20032;-74
2023/02/17 15:48:47;;;;;;;17.92;12.73;;;;;;;;;;6329243;27;20305;-74
2023/02/17 15:51:49;;;;;;;19.05;12.85;;;;;;;;;;6328704;28;20336;-75
2023/02/17 15:54:52;;;;;;;15.00;11.75;;;;;;;;;;6325191;28;20201;-74
2023/02/17 15:57:56;;;;;;;17.27;12.75;;;;;;;;;;6328077;28;20162;-75
2023/02/17 16:01:02;;;;;;;16.05;13.00;;;;;;;;;;6328054;28;20138;-75
2023/02/17 16:04:04;;;;;;;15.85;12.95;;;;;;;;;;6326554;27;20075;-74
2023/02/17 16:07:06;;;;;;;16.85;12.30;;;;;;;;;;6327278;27;20641;-75
2023/02/17 16:10:11;;;;;;;16.02;12.63;;;;;;;;;;6325985;28;20063;-72
2023/02/17 16:13:15;;;;;;;28.77;13.05;;;;;;;;;;6325315;27;20058;-75
2023/02/17 16:16:19;;;;;;;18.55;12.60;;;;;;;;;;6326719;28;20177;-75
2023/02/17 16:19:21;;;;;;;;;;;;;;;;;;6327787;27;20056;-74
2023/02/17 16:22:23;;;;;;;19.90;10.88;;;;;;;;;;6323604;28;20150;-75
2023/02/17 16:25:26;;;;;;;16.08;12.27;;;;;;;;;;6332605;27;20045;-74
2023/02/17 16:28:28;;;;;;;13.65;11.23;;;;;;;;;;6328184;28;20203;-75
2023/02/17 16:31:34;;;;;;;15.85;11.10;;;;;;;;;;6326671;27;20044;-74
2023/02/17 16:34:36;;;;;;;17.27;11.30;;;;;;;;;;6328300;28;20040;-74
2023/02/17 16:37:38;;;;;;;17.30;11.52;;;;;;;;;;6323511;27;20052;-72
2023/02/17 16:40:49;;;;;;;18.98;13.00;;;;;;;;;;6325517;28;20079;-74
2023/02/17 16:43:51;;;;;;;18.55;11.82;;;;;;;;;;6327106;27;20051;-75
2023/02/17 16:46:54;;;;;;;19.42;12.52;;;;;;;;;;6324691;28;20340;-74
2023/02/17 16:49:55;;;;;;;20.00;13.00;;;;;;;;;;6324701;28;20286;-74
2023/02/17 16:52:59;;;;;;;20.30;13.02;;;;;;;;;;6326153;28;20604;-74
2023/02/17 16:56:09;;;;;;;18.75;12.80;;;;;;;;;;6326546;27;20055;-74
2023/02/17 16:59:13;;;;;;;23.85;12.60;;;;;;;;;;6325892;28;20113;-73
2023/02/17 17:02:15;;;;;;;23.17;13.60;;;;;;;;;;6325478;28;20048;-72
2023/02/17 17:05:21;;;;;;;24.58;14.90;;;;;;;;;;6327703;27;20044;-73
2023/02/17 17:08:22;;;;;;;21.05;13.88;;;;;;;;;;6324743;28;20056;-74
2023/02/17 17:11:27;;;;;;;20.63;13.52;;;;;;;;;;6322326;28;20044;-73
2023/02/17 17:14:28;;;;;;;22.92;14.52;;;;;;;;;;6324297;28;20062;-72
2023/02/17 17:17:41;;;;;;;28.55;14.02;;;;;;;;;;6328844;27;20048;-74
2023/02/17 17:20:43;;;;;;;18.35;13.23;;;;;;;;;;6323061;28;20052;-73
2023/02/17 17:23:45;;;;;;;19.33;13.85;;;;;;;;;;6323622;27;20675;-74
2023/02/17 17:26:50;;;;;;;20.23;13.75;;;;;;;;;;6324736;28;20090;-73
2023/02/17 17:29:52;;;;;;;24.38;14.50;;;;;;;;;;6325669;28;20078;-71
2023/02/17 17:32:54;;;;;;;25.20;14.45;;;;;;;;;;6328239;28;20106;-72
2023/02/17 17:35:55;;;;;;;23.02;14.05;;;;;;;;;;6329189;28;20057;-73
2023/02/17 17:38:58;;;;;;;20.58;13.07;;;;;;;;;;6333417;28;20063;-73
2023/02/17 17:42:01;;;;;;;14.15;9.95;;;;;;;;;;6329323;28;20140;-74
2023/02/17 17:45:03;;;;;;;13.27;7.80;;;;;;;;;;6323218;28;20047;-73
2023/02/17 17:48:05;;;;;;;10.63;7.50;;;;;;;;;;6333053;28;20074;-74
2023/02/17 17:51:07;;;;;;;11.57;6.50;;;;;;;;;;6325925;27;20280;-74
2023/02/17 17:54:09;;;;;;;11.98;6.45;;;;;;;;;;6331115;28;20332;-74
2023/02/17 17:57:12;;;;;;;8.25;6.03;;;;;;;;;;6322068;28;20052;-73
2023/02/17 18:00:17;;;;;;;11.23;7.13;;;;;;;;;;6326662;28;20294;-74
2023/02/17 18:03:19;;;;;;;7.95;6.18;;;;;;;;;;6324161;27;20143;-72